Time;durP1;ratioP1;P1;durP2;ratioP2;P2;SDS_P1;SDS_P2;PMS_P1;PMS_P2;Temp;Humidity;BMP_temperature;BMP_pressure;BME280_temperature;BME280_humidity;BME280_pressure;Samples;Min_cycle;Max_cycle;Signal;HPM_P1;HPM_P2
2022/06/29 00:00:14;;;;;;;4.70;4.18;;;22.10;59.70;;;;;;5063742;28;20063;-45
2022/06/29 00:02:40;;;;;;;;;;;22.10;60.10;;;;;;5069210;28;20083;-45
2022/06/29 00:05:06;;;;;;;4.20;3.80;;;22.10;60.60;;;;;;5066180;28;19947;-44
2022/06/29 00:07:33;;;;;;;3.80;3.38;;;22.10;60.10;;;;;;5071262;28;20485;-44
2022/06/29 00:09:59;;;;;;;3.93;3.30;;;22.10;59.70;;;;;;5082443;28;20055;-47
2022/06/29 00:12:25;;;;;;;3.80;3.40;;;22.10;59.20;;;;;;5076498;28;20115;-48
2022/06/29 00:14:51;;;;;;;3.83;3.28;;;22.10;58.80;;;;;;5094537;28;20028;-45
2022/06/29 00:17:18;;;;;;;3.95;3.30;;;22.00;58.80;;;;;;5084374;28;20039;-46
2022/06/29 00:19:44;;;;;;;3.20;2.90;;;22.10;59.20;;;;;;5084630;28;20024;-45
2022/06/29 00:22:10;;;;;;;3.90;3.00;;;22.10;59.80;;;;;;5083598;28;20132;-44
2022/06/29 00:24:36;;;;;;;3.10;2.80;;;22.00;60.40;;;;;;5094301;28;20031;-45
2022/06/29 00:27:02;;;;;;;4.40;3.20;;;22.00;59.80;;;;;;5088935;28;20054;-45
2022/06/29 00:29:29;;;;;;;3.10;2.80;;;22.00;59.30;;;;;;5098850;28;20038;-46
2022/06/29 00:31:55;;;;;;;3.00;2.70;;;22.00;58.80;;;;;;5097853;28;20044;-45
2022/06/29 00:34:21;;;;;;;3.40;3.10;;;22.00;58.70;;;;;;5080936;28;20034;-47
2022/06/29 00:36:47;;;;;;;3.00;2.67;;;22.00;59.30;;;;;;5083905;28;20032;-45
2022/06/29 00:39:13;;;;;;;3.17;2.88;;;22.00;60.10;;;;;;5097726;28;20467;-47
2022/06/29 00:41:40;;;;;;;2.85;2.60;;;22.00;60.60;;;;;;5099178;28;20750;-45
2022/06/29 00:44:09;;;;;;;3.05;2.80;;;22.00;60.80;;;;;;5089959;28;20140;-46
2022/06/29 00:46:40;;;;;;;2.42;2.22;;;22.00;60.70;;;;;;5084004;28;20078;-46
2022/06/29 00:49:06;;;;;;;3.00;2.70;;;22.00;59.40;;;;;;5082714;28;20021;-45
2022/06/29 00:51:32;;;;;;;2.47;2.28;;;22.00;59.30;;;;;;5083506;28;20083;-46
2022/06/29 00:53:58;;;;;;;2.78;2.50;;;22.00;59.60;;;;;;5081113;28;20089;-46
2022/06/29 00:56:24;;;;;;;2.90;2.60;;;22.00;60.20;;;;;;5095786;28;20036;-45
2022/06/29 00:58:51;;;;;;;2.88;2.67;;;22.00;60.70;;;;;;5083439;28;20036;-44
2022/06/29 01:01:17;;;;;;;2.60;2.40;;;22.00;61.20;;;;;;5093458;28;20031;-45
2022/06/29 01:03:43;;;;;;;2.55;2.35;;;21.90;60.40;;;;;;5085575;28;20594;-46
2022/06/29 01:06:09;;;;;;;2.55;2.35;;;22.00;59.70;;;;;;5092317;28;20125;-46
2022/06/29 01:08:35;;;;;;;3.15;2.90;;;22.00;59.50;;;;;;5083602;28;20043;-52
2022/06/29 01:11:01;;;;;;;2.65;2.45;;;21.90;60.00;;;;;;5085516;28;20115;-53
2022/06/29 01:13:28;;;;;;;3.17;2.40;;;22.00;60.70;;;;;;5103035;28;20026;-54
2022/06/29 01:15:54;;;;;;;2.72;2.53;;;21.90;61.00;;;;;;5102823;28;20059;-53
2022/06/29 01:18:20;;;;;;;2.55;2.35;;;21.90;61.50;;;;;;5085747;28;20023;-54
2022/06/29 01:20:46;;;;;;;2.75;2.55;;;21.90;61.50;;;;;;5083374;28;20033;-55
2022/06/29 01:23:13;;;;;;;2.83;2.45;;;22.00;61.10;;;;;;5085738;28;20055;-52
2022/06/29 01:25:39;;;;;;;2.53;2.33;;;22.00;60.60;;;;;;5092181;28;20036;-54
2022/06/29 01:28:05;;;;;;;4.32;2.60;;;21.90;60.50;;;;;;5082601;28;20052;-53
2022/06/29 01:30:31;;;;;;;2.63;2.42;;;21.90;61.10;;;;;;5082727;28;20036;-52
2022/06/29 01:32:57;;;;;;;2.42;2.15;;;22.00;61.50;;;;;;5079118;28;20021;-52
2022/06/29 01:35:23;;;;;;;2.50;2.30;;;21.90;61.90;;;;;;5075104;28;20024;-53
2022/06/29 01:37:49;;;;;;;2.63;2.42;;;21.90;62.20;;;;;;5071132;28;20103;-49
2022/06/29 01:40:16;;;;;;;2.60;2.40;;;21.90;61.70;;;;;;5073777;28;20039;-49
2022/06/29 01:42:42;;;;;;;2.47;2.28;;;21.90;61.10;;;;;;5075193;28;20103;-52
2022/06/29 01:45:08;;;;;;;2.55;2.35;;;21.90;60.50;;;;;;5068758;28;20046;-50
2022/06/29 01:47:35;;;;;;;3.33;2.50;;;22.00;61.00;;;;;;5072430;28;20028;-53
2022/06/29 01:50:01;;;;;;;2.60;2.40;;;22.00;61.50;;;;;;5073084;28;20097;-48
2022/06/29 01:52:28;;;;;;;2.50;2.30;;;21.90;62.00;;;;;;5073346;28;20040;-50
2022/06/29 01:54:54;;;;;;;2.33;2.13;;;21.90;62.30;;;;;;5074263;28;20495;-53
2022/06/29 01:57:20;;;;;;;2.13;2.03;;;21.90;62.10;;;;;;5078394;28;20039;-50
2022/06/29 01:59:46;;;;;;;2.40;2.20;;;21.90;61.40;;;;;;5069778;28;20028;-54
2022/06/29 02:02:12;;;;;;;2.45;2.10;;;21.90;60.70;;;;;;5076486;28;20194;-48
2022/06/29 02:04:38;;;;;;;2.17;2.08;;;21.90;60.70;;;;;;5069335;28;20478;-51
2022/06/29 02:07:04;;;;;;;2.70;2.50;;;21.90;61.40;;;;;;5077693;28;20036;-53
2022/06/29 02:09:31;;;;;;;2.45;2.25;;;21.90;61.70;;;;;;5069300;28;20769;-53
2022/06/29 02:11:57;;;;;;;2.17;2.03;;;21.90;62.00;;;;;;5066744;28;20103;-51
2022/06/29 02:14:23;;;;;;;1.92;1.83;;;21.90;62.30;;;;;;5065564;28;21328;-51
2022/06/29 02:16:49;;;;;;;2.20;2.00;;;21.90;62.20;;;;;;5068510;28;20051;-49
2022/06/29 02:19:15;;;;;;;2.15;2.00;;;21.90;61.70;;;;;;5063800;28;20025;-53
2022/06/29 02:21:41;;;;;;;2.30;2.10;;;21.90;61.10;;;;;;5068673;28;20031;-53
2022/06/29 02:24:07;;;;;;;2.00;1.90;;;21.90;61.10;;;;;;5069614;28;20027;-51
2022/06/29 02:26:33;;;;;;;2.00;1.90;;;21.90;61.50;;;;;;5066253;28;20033;-50
2022/06/29 02:28:59;;;;;;;2.10;2.00;;;21.90;61.70;;;;;;5068581;28;20027;-52
2022/06/29 02:36:55;;;;;;;2.40;2.20;;;21.90;62.30;;;;;;5070631;28;20047;-46
2022/06/29 02:39:21;;;;;;;1.88;1.77;;;21.90;61.90;;;;;;5075946;28;20017;-48
2022/06/29 02:41:47;;;;;;;1.90;1.80;;;21.90;61.30;;;;;;5077276;28;20037;-48
2022/06/29 02:44:13;;;;;;;2.10;2.00;;;21.90;60.80;;;;;;5081280;28;20032;-49
2022/06/29 02:46:39;;;;;;;1.98;1.88;;;21.90;61.30;;;;;;5085264;28;20039;-49
2022/06/29 02:49:06;;;;;;;1.90;1.67;;;21.90;61.40;;;;;;5070651;28;20032;-52
2022/06/29 02:51:32;;;;;;;2.17;1.98;;;21.90;61.70;;;;;;5076519;28;20066;-49
2022/06/29 02:53:58;;;;;;;2.20;2.00;;;21.90;62.00;;;;;;5071837;28;20056;-52
2022/06/29 02:56:24;;;;;;;1.83;1.73;;;21.90;62.20;;;;;;5078080;28;20032;-51
2022/06/29 02:58:50;;;;;;;2.00;1.77;;;21.90;63.00;;;;;;5081017;28;20020;-51
2022/06/29 03:01:16;;;;;;;3.45;1.70;;;21.90;61.80;;;;;;5078025;28;20074;-54
2022/06/29 03:03:42;;;;;;;1.95;1.83;;;21.90;61.30;;;;;;5084741;28;20080;-53
2022/06/29 03:06:08;;;;;;;1.80;1.70;;;21.90;61.50;;;;;;5077835;28;20056;-50
2022/06/29 03:08:34;;;;;;;1.85;1.75;;;21.90;61.60;;;;;;5074713;28;20096;-49
2022/06/29 03:11:00;;;;;;;2.22;2.05;;;21.90;61.90;;;;;;5079404;28;20036;-50
2022/06/29 03:13:27;;;;;;;1.67;1.58;;;21.90;62.20;;;;;;5078675;28;20084;-52
2022/06/29 03:15:53;;;;;;;1.88;1.77;;;21.90;62.20;;;;;;5075716;28;20039;-53
2022/06/29 03:18:19;;;;;;;2.67;1.60;;;21.90;62.30;;;;;;5080239;28;20905;-52
2022/06/29 03:20:45;;;;;;;1.60;1.50;;;21.90;61.90;;;;;;5084969;28;20131;-50
2022/06/29 03:23:12;;;;;;;1.90;1.80;;;21.90;61.20;;;;;;5084894;28;20567;-51
2022/06/29 03:25:38;;;;;;;1.70;1.60;;;21.90;61.20;;;;;;5080825;28;20117;-52
2022/06/29 03:28:04;;;;;;;1.70;1.60;;;21.90;61.60;;;;;;5074579;28;20096;-49
2022/06/29 03:30:30;;;;;;;1.77;1.67;;;21.90;61.70;;;;;;5072908;28;20047;-56
2022/06/29 03:32:57;;;;;;;1.90;1.70;;;21.90;62.00;;;;;;5071688;28;20036;-46
2022/06/29 03:35:23;;;;;;;5.93;2.00;;;21.90;62.00;;;;;;5074403;28;20668;-48
2022/06/29 03:37:50;;;;;;;3.00;1.70;;;21.90;62.20;;;;;;5081499;28;20047;-45
2022/06/29 03:40:17;;;;;;;3.22;1.60;;;21.90;62.20;;;;;;5075922;28;20048;-49
2022/06/29 03:42:43;;;;;;;1.60;1.50;;;21.90;62.00;;;;;;5083487;28;20064;-48
2022/06/29 03:45:09;;;;;;;1.65;1.55;;;22.00;61.80;;;;;;5076456;28;20265;-50
2022/06/29 03:47:36;;;;;;;1.60;1.45;;;21.90;61.40;;;;;;5073731;28;20060;-48
2022/06/29 03:50:02;;;;;;;2.55;1.45;;;21.90;61.10;;;;;;5080530;28;20096;-53
2022/06/29 03:52:28;;;;;;;2.95;1.50;;;22.00;61.10;;;;;;5079245;28;20024;-58
2022/06/29 03:54:54;;;;;;;3.00;1.42;;;21.90;61.20;;;;;;5075338;28;20025;-55
2022/06/29 03:57:20;;;;;;;1.77;1.42;;;22.00;61.50;;;;;;5078662;28;20059;-54
2022/06/29 03:59:46;;;;;;;1.77;1.40;;;21.90;61.50;;;;;;5073372;28;20025;-53
2022/06/29 04:02:12;;;;;;;1.63;1.52;;;21.90;61.70;;;;;;5076259;28;20035;-54
2022/06/29 04:04:38;;;;;;;1.95;1.45;;;22.00;61.90;;;;;;5078122;28;20019;-56
2022/06/29 04:07:04;;;;;;;1.45;1.35;;;22.00;62.10;;;;;;5079650;28;20036;-50
2022/06/29 04:09:31;;;;;;;1.95;1.30;;;22.00;62.10;;;;;;5073002;28;20036;-51
2022/06/29 04:11:57;;;;;;;1.85;1.60;;;22.00;62.40;;;;;;5073902;28;20033;-58
2022/06/29 04:14:28;;;;;;;1.42;1.33;;;22.00;61.20;;;;;;5075494;28;20025;-53
2022/06/29 04:16:55;;;;;;;1.40;1.30;;;22.00;61.10;;;;;;5077782;28;20033;-56
2022/06/29 04:19:21;;;;;;;3.08;1.30;;;22.00;61.20;;;;;;5085911;28;20025;-54
2022/06/29 04:21:48;;;;;;;1.58;1.10;;;22.00;61.40;;;;;;5081003;28;20040;-62
2022/06/29 04:24:15;;;;;;;1.50;1.20;;;22.00;61.60;;;;;;5080114;28;20035;-57
2022/06/29 04:26:42;;;;;;;1.23;1.10;;;22.00;61.80;;;;;;5078790;28;20028;-56
2022/06/29 04:29:08;;;;;;;1.23;1.13;;;22.00;62.00;;;;;;5075804;28;20047;-56
2022/06/29 04:31:34;;;;;;;1.25;1.15;;;22.00;62.00;;;;;;5077421;28;20048;-55
2022/06/29 04:34:01;;;;;;;1.10;1.00;;;22.00;62.20;;;;;;5077655;28;20045;-54
2022/06/29 04:36:47;;;;;;;1.27;1.13;;;22.00;62.30;;;;;;5056091;28;20100;-51
2022/06/29 04:39:13;;;;;;;1.23;1.13;;;22.10;62.40;;;;;;5053197;28;20048;-54
2022/06/29 04:41:39;;;;;;;1.25;1.15;;;22.10;62.20;;;;;;5053438;28;20045;-52
2022/06/29 04:44:05;;;;;;;1.50;1.40;;;22.10;62.00;;;;;;5056149;28;20056;-54
2022/06/29 04:46:31;;;;;;;1.10;1.00;;;22.10;61.20;;;;;;5054028;28;20647;-54
2022/06/29 04:49:01;;;;;;;1.15;1.05;;;22.10;61.20;;;;;;5053646;28;20041;-52
2022/06/29 04:51:29;;;;;;;1.17;1.08;;;22.10;61.40;;;;;;5039228;28;20104;-55
2022/06/29 04:53:56;;;;;;;1.15;1.10;;;22.10;61.70;;;;;;5054244;28;20108;-53
2022/06/29 04:56:27;;;;;;;1.02;0.93;;;22.10;61.90;;;;;;5050241;28;20059;-54
2022/06/29 04:58:53;;;;;;;1.00;0.90;;;22.10;62.10;;;;;;5045182;28;20402;-54
2022/06/29 05:01:23;;;;;;;1.50;1.10;;;22.10;62.20;;;;;;5045639;28;20041;-54
2022/06/29 05:03:50;;;;;;;0.90;0.90;;;22.10;62.40;;;;;;5014110;28;20041;-54
2022/06/29 05:06:16;;;;;;;0.80;0.80;;;22.10;62.50;;;;;;5043730;28;20172;-52
2022/06/29 05:08:42;;;;;;;0.90;0.90;;;22.10;62.60;;;;;;5044096;28;20547;-57
2022/06/29 05:11:09;;;;;;;1.08;0.98;;;22.10;62.70;;;;;;5043558;28;20045;-51
2022/06/29 05:13:35;;;;;;;1.27;1.17;;;22.20;63.00;;;;;;5053530;28;20393;-50
2022/06/29 05:16:01;;;;;;;4.90;3.30;;;22.20;62.70;;;;;;5066050;28;20033;-54
2022/06/29 05:18:28;;;;;;;4.60;3.38;;;22.20;62.10;;;;;;5067458;28;20032;-55
2022/06/29 05:20:54;;;;;;;3.55;2.83;;;22.20;61.60;;;;;;5070903;28;20029;-56
2022/06/29 05:23:21;;;;;;;4.20;3.42;;;22.20;61.60;;;;;;5069837;28;20065;-58
2022/06/29 05:25:47;;;;;;;6.57;3.63;;;22.20;61.80;;;;;;5071320;28;20037;-58
2022/06/29 05:28:13;;;;;;;3.92;2.97;;;22.20;61.90;;;;;;5077827;28;20020;-57
2022/06/29 05:30:39;;;;;;;4.50;3.20;;;22.20;62.00;;;;;;5072633;28;20086;-60
2022/06/29 05:33:05;;;;;;;4.65;2.78;;;22.20;62.20;;;;;;5076701;28;20056;-60
2022/06/29 05:35:33;;;;;;;3.45;2.80;;;22.20;62.30;;;;;;5075027;28;20028;-60
2022/06/29 05:38:02;;;;;;;4.53;3.60;;;22.20;62.40;;;;;;5073907;28;20025;-61
2022/06/29 05:40:29;;;;;;;4.65;3.55;;;22.20;62.50;;;;;;5068397;28;20025;-61
2022/06/29 05:42:57;;;;;;;5.13;3.90;;;22.20;62.20;;;;;;5071562;28;20056;-60
2022/06/29 05:45:24;;;;;;;4.97;3.85;;;22.20;61.70;;;;;;5079306;28;20032;-60
2022/06/29 05:47:51;;;;;;;;;;;22.20;61.30;;;;;;5070691;28;20024;-60
2022/06/29 05:50:18;;;;;;;4.68;3.25;;;22.20;61.20;;;;;;5074618;28;19916;-59
2022/06/29 05:52:44;;;;;;;3.90;2.88;;;22.20;61.40;;;;;;5071169;28;20042;-58
2022/06/29 05:55:10;;;;;;;4.95;3.35;;;22.20;61.60;;;;;;5080266;28;20025;-59
2022/06/29 05:57:36;;;;;;;3.78;2.80;;;22.20;61.80;;;;;;5069097;28;20084;-59
2022/06/29 06:00:04;;;;;;;3.00;2.63;;;22.20;62.00;;;;;;5071001;28;20024;-59
2022/06/29 06:02:30;;;;;;;3.72;2.97;;;22.20;62.10;;;;;;5067940;28;20607;-59
2022/06/29 06:04:56;;;;;;;3.40;2.55;;;22.20;62.20;;;;;;5064134;28;20052;-58
2022/06/29 06:07:22;;;;;;;4.32;3.22;;;22.20;62.30;;;;;;5065616;28;20051;-58
2022/06/29 06:09:48;;;;;;;4.38;2.80;;;22.20;62.20;;;;;;5066590;28;20540;-59
2022/06/29 06:12:14;;;;;;;4.35;2.97;;;22.20;61.70;;;;;;5065585;28;20028;-60
2022/06/29 06:14:40;;;;;;;3.50;2.83;;;22.20;61.20;;;;;;5064443;28;20045;-59
2022/06/29 06:17:06;;;;;;;3.28;2.40;;;22.20;61.00;;;;;;5064652;28;20078;-58
2022/06/29 06:19:32;;;;;;;3.15;2.38;;;22.20;61.10;;;;;;5067735;28;20028;-59
2022/06/29 06:21:58;;;;;;;2.95;2.58;;;22.30;61.40;;;;;;5067564;28;20031;-59
2022/06/29 06:24:25;;;;;;;3.33;2.50;;;22.20;61.40;;;;;;5069097;28;20041;-59
2022/06/29 06:26:51;;;;;;;2.75;2.33;;;22.20;61.60;;;;;;5071815;28;20032;-59
2022/06/29 06:29:17;;;;;;;3.20;2.45;;;22.30;61.90;;;;;;5071408;28;20024;-59
2022/06/29 06:31:44;;;;;;;2.63;2.03;;;22.20;61.90;;;;;;5076407;28;20068;-59
2022/06/29 06:34:10;;;;;;;2.50;1.98;;;22.20;62.10;;;;;;5067540;28;20067;-60
2022/06/29 06:36:36;;;;;;;2.92;2.20;;;22.20;62.20;;;;;;5077019;28;20049;-58
2022/06/29 06:39:02;;;;;;;2.30;2.10;;;22.30;62.40;;;;;;5070998;28;20031;-59
2022/06/29 06:41:28;;;;;;;2.60;2.25;;;22.30;62.30;;;;;;5072944;28;20033;-59
2022/06/29 06:43:59;;;;;;;2.60;2.13;;;22.30;61.80;;;;;;5075535;28;20053;-59
2022/06/29 06:46:25;;;;;;;2.70;2.00;;;22.30;61.20;;;;;;5075322;28;20057;-59
2022/06/29 06:48:52;;;;;;;2.30;2.07;;;22.30;61.10;;;;;;5073538;28;20040;-59
2022/06/29 06:51:22;;;;;;;3.03;2.10;;;22.30;62.00;;;;;;5076670;28;20942;-59
2022/06/29 06:53:48;;;;;;;2.03;1.80;;;22.30;61.50;;;;;;5075577;28;20067;-59
2022/06/29 06:56:15;;;;;;;2.92;2.10;;;22.30;61.70;;;;;;5074886;28;20652;-59
2022/06/29 06:58:41;;;;;;;2.45;1.90;;;22.30;61.80;;;;;;5075783;28;20021;-60
2022/06/29 07:01:08;;;;;;;2.65;1.70;;;22.30;61.90;;;;;;5071990;28;20033;-60
2022/06/29 07:03:37;;;;;;;2.35;1.70;;;22.30;62.10;;;;;;5077200;28;20032;-60
2022/06/29 07:06:06;;;;;;;3.08;1.95;;;22.30;62.20;;;;;;5073035;28;20147;-60
2022/06/29 07:08:33;;;;;;;1.63;1.50;;;22.30;62.40;;;;;;5070157;28;20500;-60
2022/06/29 07:11:00;;;;;;;2.10;1.53;;;22.30;62.40;;;;;;5073323;28;20033;-59
2022/06/29 07:13:26;;;;;;;1.77;1.45;;;22.30;62.60;;;;;;5076042;28;20281;-58
2022/06/29 07:15:52;;;;;;;1.90;1.60;;;22.30;62.60;;;;;;5071578;28;20088;-60
2022/06/29 07:18:18;;;;;;;1.90;1.63;;;22.30;62.20;;;;;;5072053;28;20033;-59
2022/06/29 07:20:45;;;;;;;1.98;1.50;;;22.30;61.60;;;;;;5072946;28;20035;-61
2022/06/29 07:23:11;;;;;;;1.45;1.35;;;22.30;61.10;;;;;;5073298;28;20029;-61
2022/06/29 07:25:37;;;;;;;1.67;1.50;;;22.30;61.20;;;;;;5076938;28;20033;-59
2022/06/29 07:28:03;;;;;;;1.67;1.50;;;22.30;61.40;;;;;;5082109;28;20405;-61
2022/06/29 07:30:29;;;;;;;1.85;1.45;;;22.30;61.50;;;;;;5080419;28;20041;-60
2022/06/29 07:32:55;;;;;;;1.60;1.40;;;22.30;61.70;;;;;;5081589;28;20443;-59
2022/06/29 07:35:21;;;;;;;1.52;1.40;;;22.30;61.90;;;;;;5077048;28;20043;-59
2022/06/29 07:37:48;;;;;;;2.03;1.35;;;22.30;62.70;;;;;;5074779;28;20025;-58
2022/06/29 07:40:14;;;;;;;1.50;1.27;;;22.30;62.20;;;;;;5074387;28;20052;-59
2022/06/29 07:42:40;;;;;;;1.60;1.40;;;22.30;62.40;;;;;;5076745;28;20053;-60
2022/06/29 07:45:07;;;;;;;1.65;1.35;;;22.30;62.50;;;;;;5077886;28;20033;-60
2022/06/29 07:47:33;;;;;;;1.58;1.20;;;22.30;62.60;;;;;;5075329;28;20029;-58
2022/06/29 07:49:59;;;;;;;3.03;1.48;;;22.30;62.40;;;;;;5076590;28;20126;-55
2022/06/29 07:52:25;;;;;;;1.43;1.33;;;22.30;61.90;;;;;;5081642;28;20051;-59
2022/06/29 07:54:51;;;;;;;1.92;1.50;;;22.30;61.90;;;;;;5075948;28;20032;-53
2022/06/29 07:57:18;;;;;;;1.60;1.48;;;22.30;62.00;;;;;;5075616;28;20064;-55
2022/06/29 07:59:46;;;;;;;1.63;1.52;;;22.30;62.00;;;;;;5074332;28;20043;-56
2022/06/29 08:02:13;;;;;;;1.88;1.40;;;22.40;62.10;;;;;;5077543;28;20127;-53
2022/06/29 08:04:39;;;;;;;1.65;1.05;;;22.30;62.10;;;;;;5075065;28;20021;-50
2022/06/29 08:07:05;;;;;;;1.40;1.30;;;22.30;62.10;;;;;;5077102;28;20483;-46
2022/06/29 08:09:32;;;;;;;1.40;1.30;;;22.40;62.20;;;;;;5075163;28;20032;-47
2022/06/29 08:11:58;;;;;;;1.92;1.40;;;22.40;62.30;;;;;;5069974;28;20104;-45
2022/06/29 08:14:24;;;;;;;1.77;1.40;;;22.40;62.00;;;;;;5067985;28;20041;-45
2022/06/29 08:16:50;;;;;;;1.73;1.52;;;22.40;61.20;;;;;;5068009;28;20032;-43
2022/06/29 08:19:16;;;;;;;1.80;1.23;;;22.40;61.50;;;;;;5066943;28;20091;-57
2022/06/29 08:21:42;;;;;;;1.85;1.30;;;22.40;61.40;;;;;;5069157;28;20037;-48
2022/06/29 08:24:08;;;;;;;1.92;1.27;;;22.40;61.90;;;;;;5069202;28;20085;-47
2022/06/29 08:26:34;;;;;;;1.90;1.30;;;22.40;62.00;;;;;;5068169;28;20033;-45
2022/06/29 08:29:00;;;;;;;1.80;1.30;;;22.40;62.20;;;;;;5070854;28;20025;-45
2022/06/29 08:31:26;;;;;;;1.52;1.30;;;22.40;62.20;;;;;;5071364;28;20040;-45
2022/06/29 08:33:53;;;;;;;1.85;1.30;;;22.40;62.20;;;;;;5072685;28;20043;-46
2022/06/29 08:36:19;;;;;;;2.22;1.60;;;22.40;62.50;;;;;;5065379;28;20038;-47
2022/06/29 08:38:45;;;;;;;2.55;1.58;;;22.40;62.60;;;;;;5067212;28;21446;-45
2022/06/29 08:41:11;;;;;;;3.40;1.45;;;22.40;62.40;;;;;;5071918;28;20025;-45
2022/06/29 08:43:37;;;;;;;2.30;1.50;;;22.40;62.10;;;;;;5054077;28;20044;-45
2022/06/29 08:46:03;;;;;;;2.22;1.40;;;22.40;62.20;;;;;;5072180;28;20029;-46
2022/06/29 08:48:30;;;;;;;1.50;1.30;;;22.40;62.20;;;;;;5078672;28;20565;-44
2022/06/29 08:50:56;;;;;;;1.83;1.52;;;22.40;62.20;;;;;;5071380;28;20044;-46
2022/06/29 08:53:23;;;;;;;1.83;1.40;;;22.40;62.20;;;;;;5078964;28;20039;-45
2022/06/29 08:55:55;;;;;;;2.13;1.40;;;22.40;62.30;;;;;;5074692;28;20086;-44
2022/06/29 08:58:22;;;;;;;1.90;1.30;;;22.40;62.30;;;;;;5072362;28;20499;-47
2022/06/29 09:00:49;;;;;;;2.13;1.30;;;22.40;62.30;;;;;;5072002;28;20028;-45
2022/06/29 09:03:17;;;;;;;2.25;1.38;;;22.40;62.30;;;;;;5075775;28;20028;-44
2022/06/29 09:05:56;;;;;;;1.50;1.30;;;22.40;62.40;;;;;;5075633;28;20032;-48
2022/06/29 09:08:23;;;;;;;2.55;1.50;;;22.40;62.60;;;;;;5073575;28;20056;-44
2022/06/29 09:10:49;;;;;;;1.98;1.30;;;22.40;62.30;;;;;;5079471;28;20043;-47
2022/06/29 09:13:22;;;;;;;2.25;1.65;;;22.40;62.00;;;;;;5078203;28;20029;-44
2022/06/29 09:15:58;;;;;;;1.50;1.40;;;22.40;62.00;;;;;;5071641;28;20028;-46
2022/06/29 09:18:25;;;;;;;1.90;1.30;;;22.40;62.10;;;;;;5071044;28;20075;-45
2022/06/29 09:20:55;;;;;;;1.60;1.33;;;22.40;62.00;;;;;;5077280;28;20027;-46
2022/06/29 09:23:22;;;;;;;1.90;1.30;;;22.40;62.00;;;;;;5074552;28;20445;-46
2022/06/29 09:26:08;;;;;;;1.67;1.20;;;22.40;62.10;;;;;;5018273;28;20046;-47
2022/06/29 09:28:34;;;;;;;1.65;1.50;;;22.40;62.10;;;;;;5016513;28;20076;-45
2022/06/29 09:31:01;;;;;;;1.65;1.25;;;22.40;62.20;;;;;;5017875;28;20060;-47
2022/06/29 09:33:33;;;;;;;1.52;1.15;;;22.40;62.20;;;;;;5020387;28;20032;-45
2022/06/29 09:36:14;;;;;;;1.33;1.23;;;22.40;62.30;;;;;;5023356;28;20027;-46
2022/06/29 09:38:40;;;;;;;1.40;1.30;;;22.40;62.40;;;;;;5017089;28;20038;-45
2022/06/29 09:41:14;;;;;;;1.45;1.20;;;22.40;62.30;;;;;;5000922;28;20030;-45
2022/06/29 09:43:41;;;;;;;1.58;1.20;;;22.40;62.50;;;;;;5009852;28;20038;-45
2022/06/29 09:46:09;;;;;;;2.22;1.50;;;22.40;62.50;;;;;;5009978;28;20041;-45
2022/06/29 09:48:37;;;;;;;1.70;1.48;;;22.40;62.40;;;;;;5008542;28;20044;-45
2022/06/29 09:53:49;;;;;;;1.27;1.08;;;22.40;61.90;;;;;;5010973;28;20040;-46
2022/06/29 09:56:15;;;;;;;1.50;1.40;;;22.40;62.10;;;;;;4999145;28;20046;-45
2022/06/29 09:58:50;;;;;;;1.50;1.40;;;22.40;62.20;;;;;;5017277;28;20026;-47
2022/06/29 10:04:01;;;;;;;2.55;1.48;;;22.40;62.40;;;;;;5062454;28;20056;-45
2022/06/29 10:06:28;;;;;;;1.27;1.13;;;22.40;62.40;;;;;;5075019;28;20046;-44
2022/06/29 10:08:55;;;;;;;1.63;1.48;;;22.40;62.50;;;;;;5068483;28;20028;-45
2022/06/29 10:14:35;;;;;;;3.08;1.40;;;22.40;62.50;;;;;;5077334;28;19977;-44
2022/06/29 10:17:11;;;;;;;3.38;1.60;;;22.40;62.80;;;;;;5069648;28;20029;-45
2022/06/29 10:19:41;;;;;;;1.80;1.70;;;22.40;62.70;;;;;;5074712;28;20032;-45
2022/06/29 10:22:07;;;;;;;1.92;1.40;;;22.40;62.50;;;;;;5068673;28;20020;-45
2022/06/29 10:24:37;;;;;;;3.03;1.50;;;22.40;62.40;;;;;;5061671;28;20032;-50
2022/06/29 10:27:06;;;;;;;2.70;1.67;;;22.40;62.40;;;;;;5069344;28;20028;-46
2022/06/29 10:29:33;;;;;;;2.00;1.80;;;22.40;62.50;;;;;;5065696;28;20047;-46
2022/06/29 10:32:06;;;;;;;2.70;1.83;;;22.40;62.50;;;;;;5061683;28;20059;-45
2022/06/29 10:34:37;;;;;;;1.77;1.58;;;22.40;62.60;;;;;;5066333;28;20900;-46
2022/06/29 10:37:07;;;;;;;2.30;1.70;;;22.40;62.60;;;;;;5069108;28;20036;-46
2022/06/29 10:39:45;;;;;;;1.83;1.60;;;22.40;62.60;;;;;;5063042;28;20090;-47
2022/06/29 10:45:24;;;;;;;1.88;1.67;;;22.40;62.80;;;;;;4979433;28;20140;-45
2022/06/29 10:47:56;;;;;;;1.90;1.73;;;22.40;62.80;;;;;;4982369;28;20525;-45
2022/06/29 10:50:26;;;;;;;1.83;1.65;;;22.40;62.60;;;;;;4984524;28;20069;-45
2022/06/29 10:52:56;;;;;;;2.88;1.90;;;22.40;62.30;;;;;;4959119;28;20035;-44
2022/06/29 10:55:23;;;;;;;2.17;1.65;;;22.40;62.10;;;;;;4983465;28;20171;-46
2022/06/29 10:57:49;;;;;;;2.10;1.90;;;22.40;62.20;;;;;;4989272;28;20161;-47
2022/06/29 11:00:17;;;;;;;2.05;1.70;;;22.40;62.20;;;;;;4991473;28;20038;-47
2022/06/29 11:02:44;;;;;;;1.80;1.70;;;22.40;62.30;;;;;;4987731;28;20049;-47
2022/06/29 11:05:10;;;;;;;2.00;1.80;;;22.40;62.30;;;;;;4989958;28;20026;-46
2022/06/29 11:13:29;;;;;;;2.67;1.60;;;22.40;62.50;;;;;;4951164;28;20039;-45
2022/06/29 11:15:56;;;;;;;1.83;1.73;;;22.40;62.60;;;;;;4949087;29;20047;-46
2022/06/29 11:18:34;;;;;;;2.75;1.90;;;22.40;62.60;;;;;;4943791;28;20036;-45
2022/06/29 11:21:04;;;;;;;1.73;1.63;;;22.40;62.60;;;;;;4988428;28;20045;-45
2022/06/29 11:23:32;;;;;;;1.83;1.73;;;22.40;62.60;;;;;;4994576;28;20165;-46
2022/06/29 11:25:58;;;;;;;;;;;22.40;62.20;;;;;;5018365;28;20036;-48
2022/06/29 11:28:28;;;;;;;1.80;1.70;;;22.40;61.90;;;;;;5009023;28;20009;-46
2022/06/29 11:31:10;;;;;;;2.10;1.90;;;22.40;62.10;;;;;;5011144;28;20070;-46
2022/06/29 11:33:40;;;;;;;2.88;1.60;;;22.40;62.20;;;;;;5011081;28;20041;-46
2022/06/29 11:36:09;;;;;;;1.95;1.73;;;22.40;62.30;;;;;;5013019;28;20145;-46
2022/06/29 11:38:46;;;;;;;2.20;1.90;;;22.40;62.40;;;;;;5008275;28;20038;-47
2022/06/29 11:44:31;;;;;;;2.10;1.90;;;22.40;62.50;;;;;;4956503;28;20114;-46
2022/06/29 11:46:57;;;;;;;;;;;22.40;62.60;;;;;;4971409;28;20044;-46
2022/06/29 11:49:39;;;;;;;1.85;1.75;;;22.40;62.50;;;;;;5013067;28;20015;-45
2022/06/29 11:52:12;;;;;;;2.13;2.03;;;22.40;62.60;;;;;;5012349;28;20065;-46
2022/06/29 11:54:40;;;;;;;1.70;1.60;;;22.40;62.80;;;;;;5012720;28;20048;-47
2022/06/29 11:57:15;;;;;;;2.08;1.92;;;22.40;62.80;;;;;;5017387;28;20045;-46
2022/06/29 11:59:41;;;;;;;2.13;1.70;;;22.40;62.90;;;;;;5015967;28;20037;-45
2022/06/29 12:02:08;;;;;;;1.70;1.60;;;22.40;62.90;;;;;;5002438;28;20048;-47
2022/06/29 12:04:35;;;;;;;1.75;1.65;;;22.40;62.70;;;;;;5033743;28;20056;-47
2022/06/29 12:07:06;;;;;;;2.05;1.85;;;22.40;62.30;;;;;;5018914;28;20046;-46
2022/06/29 12:09:33;;;;;;;2.25;2.05;;;22.40;62.10;;;;;;5018472;28;20052;-47
2022/06/29 12:11:59;;;;;;;1.77;1.67;;;22.40;62.30;;;;;;5019622;28;20112;-46
2022/06/29 12:14:25;;;;;;;2.25;2.08;;;22.40;62.30;;;;;;5017800;28;20048;-46
2022/06/29 12:16:51;;;;;;;2.00;1.90;;;22.40;62.40;;;;;;5003384;28;20093;-46
2022/06/29 12:19:17;;;;;;;1.88;1.77;;;22.40;62.40;;;;;;5017735;28;20034;-45
2022/06/29 12:21:44;;;;;;;1.90;1.80;;;22.40;62.40;;;;;;5078806;28;20064;-45
2022/06/29 12:24:10;;;;;;;2.05;1.95;;;22.40;62.40;;;;;;5072811;28;20029;-47
2022/06/29 12:26:36;;;;;;;2.05;1.95;;;22.40;62.50;;;;;;5070916;28;20035;-46
2022/06/29 12:29:02;;;;;;;2.45;1.77;;;22.40;62.60;;;;;;5068417;28;20042;-49
2022/06/29 12:31:28;;;;;;;2.17;1.90;;;22.40;62.60;;;;;;5068637;28;20040;-46
2022/06/29 12:33:54;;;;;;;2.13;2.00;;;22.40;62.70;;;;;;5071991;28;20029;-49
2022/06/29 12:36:20;;;;;;;2.13;2.03;;;22.40;62.70;;;;;;5064346;28;20649;-47
2022/06/29 12:38:46;;;;;;;5.32;2.20;;;22.50;62.70;;;;;;5067903;28;20048;-46
2022/06/29 12:41:12;;;;;;;3.22;2.20;;;22.40;62.20;;;;;;5071924;28;20035;-47
2022/06/29 12:43:39;;;;;;;3.28;2.17;;;22.40;62.00;;;;;;5070411;28;20049;-47
2022/06/29 12:46:06;;;;;;;2.22;2.03;;;22.40;62.20;;;;;;5065561;28;20036;-47
2022/06/29 12:48:32;;;;;;;2.42;2.22;;;22.40;62.20;;;;;;5072576;28;20023;-46
2022/06/29 12:50:58;;;;;;;2.00;1.90;;;22.50;62.30;;;;;;5064305;28;20040;-48
2022/06/29 12:53:24;;;;;;;2.13;1.92;;;22.50;62.40;;;;;;5073472;28;20029;-48
2022/06/29 12:55:50;;;;;;;2.00;1.90;;;22.40;62.40;;;;;;5076957;28;20017;-46
2022/06/29 12:58:16;;;;;;;2.00;1.90;;;22.40;62.50;;;;;;5080550;28;20210;-46
2022/06/29 13:00:43;;;;;;;2.50;2.30;;;22.40;62.50;;;;;;5076979;28;20025;-46
2022/06/29 13:03:09;;;;;;;2.17;1.98;;;22.40;62.60;;;;;;5072650;28;20033;-47
2022/06/29 13:05:35;;;;;;;2.80;1.85;;;22.50;62.70;;;;;;5078902;28;20025;-47
2022/06/29 13:08:01;;;;;;;2.33;2.17;;;22.50;62.80;;;;;;5073936;28;20036;-47
2022/06/29 13:10:28;;;;;;;3.75;2.47;;;22.50;62.50;;;;;;5070696;28;20108;-48
2022/06/29 13:12:54;;;;;;;2.70;2.20;;;22.40;62.00;;;;;;5076662;28;20028;-45